createdAt,value
2022-10-13T00:00:52.919Z,12.45
2022-10-13T00:02:55.635Z,13.40
2022-10-13T00:04:58.254Z,13.57
2022-10-13T00:07:00.870Z,12.90
2022-10-13T00:09:04.164Z,13.13
2022-10-13T00:11:11.728Z,13.05
2022-10-13T00:13:14.949Z,12.85
2022-10-13T00:15:19.592Z,12.98
2022-10-13T00:17:22.191Z,12.60
2022-10-13T00:19:25.048Z,12.60
2022-10-13T00:21:28.538Z,12.60
2022-10-13T00:23:31.083Z,11.60
2022-10-13T00:25:33.655Z,11.07
2022-10-13T00:27:36.226Z,13.05
2022-10-13T00:29:38.818Z,11.98
2022-10-13T00:31:42.730Z,11.77
2022-10-13T00:33:45.397Z,11.85
2022-10-13T00:35:49.562Z,14.15
2022-10-13T00:37:53.271Z,13.23
2022-10-13T00:39:55.933Z,13.98
2022-10-13T00:41:58.943Z,12.85
2022-10-13T00:44:03.248Z,12.52
2022-10-13T00:46:06.022Z,12.18
2022-10-13T00:48:10.283Z,12.88
2022-10-13T00:50:17.186Z,13.13
2022-10-13T00:52:21.665Z,12.40
2022-10-13T00:54:25.765Z,13.85
2022-10-13T00:56:29.676Z,12.30
2022-10-13T00:58:33.665Z,13.23
2022-10-13T01:00:36.666Z,13.55
2022-10-13T01:02:39.371Z,13.18
2022-10-13T01:04:46.285Z,12.90
2022-10-13T01:06:49.723Z,13.20
2022-10-13T01:08:52.361Z,14.10
2022-10-13T01:11:02.133Z,13.68
2022-10-13T01:13:12.978Z,15.07
2022-10-13T01:15:22.402Z,14.27
2022-10-13T01:17:34.855Z,14.00
2022-10-13T01:20:05.653Z,13.23
2022-10-13T01:22:24.567Z,13.38
2022-10-13T01:24:43.935Z,14.25
2022-10-13T01:27:09.173Z,13.63
2022-10-13T01:29:44.502Z,12.63
2022-10-13T01:31:53.083Z,13.63
2022-10-13T01:34:02.639Z,13.65
2022-10-13T01:36:16.114Z,14.25
2022-10-13T01:38:34.315Z,14.30
2022-10-13T01:40:43.889Z,12.57
2022-10-13T01:42:54.422Z,13.23
2022-10-13T01:45:03.487Z,12.80
2022-10-13T01:47:08.288Z,12.95
2022-10-13T01:49:13.626Z,13.15
2022-10-13T01:51:20.761Z,12.70
2022-10-13T01:53:24.370Z,13.00
2022-10-13T01:55:28.604Z,12.88
2022-10-13T01:57:33.891Z,12.68
2022-10-13T01:59:38.503Z,13.90
2022-10-13T02:01:57.870Z,12.68
2022-10-13T02:04:13.123Z,13.30
2022-10-13T02:06:21.864Z,12.32
2022-10-13T02:08:31.430Z,12.05
2022-10-13T02:10:41.109Z,12.05
2022-10-13T02:12:50.269Z,12.95
2022-10-13T02:14:57.037Z,13.20
2022-10-13T02:17:04.625Z,12.95
2022-10-13T02:19:10.137Z,12.65
2022-10-13T02:21:12.734Z,12.63
2022-10-13T02:23:17.757Z,12.98
2022-10-13T02:25:20.391Z,12.57
2022-10-13T02:27:24.103Z,13.20
2022-10-13T02:29:27.115Z,12.73
2022-10-13T02:31:29.718Z,12.13
2022-10-13T02:33:33.849Z,12.55
2022-10-13T02:35:36.523Z,12.35
2022-10-13T02:37:39.109Z,12.38
2022-10-13T02:39:41.823Z,12.02
2022-10-13T02:41:47.609Z,12.30
2022-10-13T02:43:50.176Z,12.82
2022-10-13T02:45:52.753Z,11.85
2022-10-13T02:47:55.360Z,11.93
2022-10-13T02:49:59.291Z,12.10
2022-10-13T02:52:02.045Z,11.40
2022-10-13T02:54:04.763Z,11.82
2022-10-13T02:56:08.016Z,10.80
2022-10-13T02:58:10.584Z,11.02
2022-10-13T03:00:14.643Z,12.07
2022-10-13T03:02:17.900Z,12.20
2022-10-13T03:04:20.765Z,11.95
2022-10-13T03:06:24.741Z,11.63
2022-10-13T03:08:27.456Z,10.95
2022-10-13T03:10:30.999Z,10.70
2022-10-13T03:12:33.619Z,10.73
2022-10-13T03:14:36.595Z,11.13
2022-10-13T03:16:39.250Z,11.38
2022-10-13T03:18:41.932Z,10.77
2022-10-13T03:20:44.861Z,11.20
2022-10-13T03:22:49.934Z,10.93
2022-10-13T03:24:52.749Z,10.77
2022-10-13T03:26:55.392Z,12.10
2022-10-13T03:28:58.061Z,10.32
2022-10-13T03:31:02.525Z,11.00
2022-10-13T03:33:05.740Z,11.38
2022-10-13T03:35:09.245Z,11.38
2022-10-13T03:37:11.859Z,11.82
2022-10-13T03:39:16.243Z,11.30
2022-10-13T03:41:20.142Z,10.45
2022-10-13T03:43:23.229Z,10.93
2022-10-13T03:45:25.844Z,10.80
2022-10-13T03:47:28.480Z,10.57
2022-10-13T03:49:31.056Z,11.02
2022-10-13T03:51:33.817Z,11.07
2022-10-13T03:53:36.759Z,10.82
2022-10-13T03:55:40.695Z,11.02
2022-10-13T03:57:43.281Z,10.18
2022-10-13T03:59:45.883Z,11.27
2022-10-13T04:01:48.537Z,10.93
2022-10-13T04:03:51.641Z,11.85
2022-10-13T04:05:54.205Z,11.45
2022-10-13T04:07:56.757Z,10.90
2022-10-13T04:09:59.381Z,11.20
2022-10-13T04:12:03.324Z,10.85
2022-10-13T04:14:05.935Z,11.73
2022-10-13T04:16:10.466Z,10.55
2022-10-13T04:18:13.025Z,10.43
2022-10-13T04:20:15.742Z,10.32
2022-10-13T04:22:18.866Z,10.75
2022-10-13T04:24:21.784Z,11.90
2022-10-13T04:26:25.826Z,11.05
2022-10-13T04:28:29.834Z,11.68
2022-10-13T04:30:34.064Z,10.77
2022-10-13T04:32:36.622Z,10.65
2022-10-13T04:34:39.185Z,9.82
2022-10-13T04:36:41.812Z,11.43
2022-10-13T04:38:44.487Z,10.60
2022-10-13T04:40:47.058Z,10.07
2022-10-13T04:42:49.663Z,10.77
2022-10-13T04:44:55.999Z,10.45
2022-10-13T04:47:00.688Z,11.20
2022-10-13T04:49:03.381Z,11.55
2022-10-13T04:51:08.159Z,10.88
2022-10-13T04:53:14.206Z,11.85
2022-10-13T04:55:19.330Z,11.57
2022-10-13T04:57:21.887Z,11.18
2022-10-13T04:59:24.477Z,10.43
2022-10-13T05:01:28.403Z,12.05
2022-10-13T05:03:31.359Z,11.90
2022-10-13T05:05:36.712Z,10.48
2022-10-13T05:07:39.342Z,12.23
2022-10-13T05:09:42.092Z,11.75
2022-10-13T05:11:44.860Z,11.38
2022-10-13T05:13:47.530Z,11.40
2022-10-13T05:15:50.257Z,10.70
2022-10-13T05:17:54.171Z,10.65
2022-10-13T05:19:56.719Z,11.10
2022-10-13T05:21:59.330Z,10.98
2022-10-13T05:24:02.432Z,11.02
2022-10-13T05:26:06.004Z,10.95
2022-10-13T05:28:10.034Z,10.75
2022-10-13T05:30:13.541Z,11.25
2022-10-13T05:32:16.159Z,12.68
2022-10-13T05:34:20.174Z,12.25
2022-10-13T05:36:25.062Z,12.07
2022-10-13T05:38:27.633Z,12.02
2022-10-13T05:40:30.252Z,11.27
2022-10-13T05:42:33.227Z,12.18
2022-10-13T05:44:36.268Z,10.80
2022-10-13T05:46:38.881Z,11.77
2022-10-13T05:48:41.461Z,11.95
2022-10-13T05:50:45.359Z,12.23
2022-10-13T05:52:48.030Z,11.77
2022-10-13T05:54:54.041Z,10.90
2022-10-13T05:57:02.733Z,11.98
2022-10-13T05:59:08.705Z,10.88
2022-10-13T06:01:14.269Z,10.80
2022-10-13T06:03:20.164Z,10.85
2022-10-13T06:05:25.303Z,11.85
2022-10-13T06:07:30.594Z,11.48
2022-10-13T06:09:35.744Z,11.10
2022-10-13T06:11:38.311Z,12.13
2022-10-13T06:13:40.934Z,12.43
2022-10-13T06:15:43.530Z,11.93
2022-10-13T06:17:46.115Z,12.40
2022-10-13T06:19:48.714Z,11.40
2022-10-13T06:21:51.527Z,11.63
2022-10-13T06:23:55.514Z,12.45
2022-10-13T06:25:58.104Z,12.50
2022-10-13T06:28:01.052Z,12.32
2022-10-13T06:30:03.644Z,13.50
2022-10-13T06:32:06.572Z,12.75
2022-10-13T06:34:09.197Z,12.88
2022-10-13T06:36:12.100Z,17.17
2022-10-13T06:38:14.721Z,17.77
2022-10-13T06:40:18.662Z,15.75
2022-10-13T06:42:21.572Z,16.17
2022-10-13T06:44:24.541Z,17.42
2022-10-13T06:46:27.565Z,15.75
2022-10-13T06:48:30.590Z,16.08
2022-10-13T06:50:33.557Z,13.60
2022-10-13T06:52:36.182Z,14.07
2022-10-13T06:54:38.795Z,13.60
2022-10-13T06:56:43.093Z,14.57
2022-10-13T06:58:45.967Z,13.30
2022-10-13T07:00:48.575Z,13.65
2022-10-13T07:02:52.784Z,13.05
2022-10-13T07:04:55.884Z,13.73
2022-10-13T07:06:58.464Z,13.25
2022-10-13T07:09:04.046Z,13.45
2022-10-13T07:11:15.892Z,14.05
2022-10-13T07:15:24.596Z,17.35
2022-10-13T07:17:27.645Z,15.95
2022-10-13T07:19:30.237Z,15.93
2022-10-13T07:21:32.807Z,15.00
2022-10-13T07:23:35.444Z,14.60
2022-10-13T07:25:38.776Z,14.23
2022-10-13T07:27:42.053Z,13.20
2022-10-13T07:29:45.966Z,13.23
2022-10-13T07:31:48.542Z,12.68
2022-10-13T07:33:52.026Z,12.57
2022-10-13T07:35:54.582Z,12.25
2022-10-13T07:37:57.140Z,12.98
2022-10-13T07:40:00.350Z,12.27
2022-10-13T07:42:03.137Z,12.98
2022-10-13T07:44:06.195Z,12.57
2022-10-13T07:46:12.903Z,12.40
2022-10-13T07:48:15.807Z,13.32
2022-10-13T07:50:18.499Z,13.40
2022-10-13T07:52:21.528Z,13.60
2022-10-13T07:54:26.597Z,13.13
2022-10-13T07:56:30.052Z,13.38
2022-10-13T07:58:33.059Z,12.60
2022-10-13T08:00:36.264Z,13.57
2022-10-13T08:02:40.284Z,12.82
2022-10-13T08:04:42.880Z,13.05
2022-10-13T08:06:45.470Z,12.65
2022-10-13T08:08:48.099Z,12.77
2022-10-13T08:10:50.749Z,12.27
2022-10-13T08:12:53.346Z,12.15
2022-10-13T08:14:56.089Z,12.48
2022-10-13T09:13:19.903Z,11.95
2022-10-13T09:37:46.269Z,11.98
2022-10-13T09:40:02.410Z,13.85
2022-10-13T09:42:23.769Z,13.88
2022-10-13T09:44:29.875Z,11.90
2022-10-13T09:46:35.220Z,11.48
2022-10-13T09:48:42.282Z,11.15
2022-10-13T09:50:50.184Z,11.82
2022-10-13T09:52:55.015Z,11.25
2022-10-13T10:01:49.755Z,11.00
2022-10-13T10:03:53.185Z,9.85
2022-10-13T10:05:58.191Z,10.48
2022-10-13T10:08:12.842Z,11.98
2022-10-13T10:10:28.023Z,11.15
2022-10-13T10:12:34.794Z,11.10
2022-10-13T10:14:39.180Z,11.40
2022-10-13T10:16:46.070Z,11.60
2022-10-13T10:18:58.435Z,11.55
2022-10-13T10:21:09.350Z,10.93
2022-10-13T10:23:20.223Z,10.98
2022-10-13T10:25:33.173Z,12.38
2022-10-13T10:27:43.907Z,11.70
2022-10-13T10:29:52.370Z,10.87
2022-10-13T10:32:04.084Z,11.75
2022-10-13T10:34:29.286Z,9.88
2022-10-13T10:36:41.456Z,10.00
2022-10-13T10:38:51.587Z,10.30
2022-10-13T10:41:04.629Z,10.40
2022-10-13T10:43:36.429Z,11.30
2022-10-13T10:45:40.793Z,10.88
2022-10-13T10:47:47.041Z,10.75
2022-10-13T10:49:51.858Z,9.98
2022-10-13T10:51:55.477Z,10.48
2022-10-13T10:54:15.273Z,11.20
2022-10-13T10:56:23.957Z,10.05
2022-10-13T10:58:38.625Z,11.27
2022-10-13T11:00:49.452Z,9.10
2022-10-13T11:03:00.975Z,8.73
2022-10-13T11:05:06.376Z,10.00
2022-10-13T11:07:53.996Z,9.65
2022-10-13T11:10:18.860Z,10.65
2022-10-13T11:12:24.337Z,11.07
2022-10-13T11:14:31.906Z,10.70
2022-10-13T11:16:35.716Z,10.60
2022-10-13T11:19:28.720Z,11.05
2022-10-13T11:22:19.474Z,11.18
2022-10-13T11:24:50.449Z,10.68
2022-10-13T11:26:54.452Z,10.65
2022-10-13T11:28:57.101Z,10.75
2022-10-13T11:31:29.776Z,11.05
2022-10-13T11:33:54.512Z,10.80
2022-10-13T11:35:57.164Z,10.45
2022-10-13T11:38:17.980Z,10.35
2022-10-13T11:40:25.996Z,10.60
2022-10-13T11:42:53.318Z,10.88
2022-10-13T11:45:02.612Z,9.45
2022-10-13T11:47:17.396Z,10.90
2022-10-13T11:49:52.281Z,10.38
2022-10-13T11:52:20.385Z,9.80
2022-10-13T11:54:32.550Z,10.18
2022-10-13T11:56:39.704Z,10.60
2022-10-13T11:58:43.675Z,9.85
2022-10-13T12:00:55.326Z,10.07
2022-10-13T12:02:57.942Z,11.18
2022-10-13T12:05:05.043Z,9.77
2022-10-13T12:07:10.766Z,10.38
2022-10-13T12:09:19.192Z,10.73
2022-10-13T12:11:26.401Z,9.77
2022-10-13T12:13:31.485Z,11.23
2022-10-13T12:15:36.361Z,9.68
2022-10-13T12:17:39.445Z,11.05
2022-10-13T12:19:42.053Z,10.50
2022-10-13T12:21:51.210Z,11.25
2022-10-13T12:24:08.617Z,9.98
2022-10-13T12:26:17.378Z,12.05
2022-10-13T12:28:20.842Z,11.05
2022-10-13T12:30:26.082Z,10.45
2022-10-13T12:32:31.323Z,10.68
2022-10-13T12:34:36.312Z,10.90
2022-10-13T12:36:38.936Z,9.77
2022-10-13T12:38:48.251Z,10.35
2022-10-13T12:40:53.436Z,10.65
2022-10-13T12:42:56.927Z,10.02
2022-10-13T12:45:01.117Z,10.38
2022-10-13T12:47:04.064Z,11.05
2022-10-13T12:49:07.392Z,10.20
2022-10-13T12:51:19.590Z,9.57
2022-10-13T12:53:27.146Z,9.90
2022-10-13T12:55:32.713Z,9.40
2022-10-13T12:57:39.025Z,9.57
2022-10-13T12:59:43.807Z,10.15
2022-10-13T13:01:55.169Z,11.10
2022-10-13T13:04:00.279Z,11.13
2022-10-13T13:06:12.309Z,10.73
2022-10-13T13:08:25.343Z,10.75
2022-10-13T13:10:28.050Z,10.80
2022-10-13T13:12:32.089Z,10.27
2022-10-13T13:14:40.212Z,11.23
2022-10-13T13:16:42.861Z,10.60
2022-10-13T13:18:46.040Z,8.93
2022-10-13T13:20:48.689Z,8.55
2022-10-13T13:22:51.867Z,9.55
2022-10-13T13:24:54.683Z,8.70
2022-10-13T13:26:57.327Z,8.50
2022-10-13T13:29:01.250Z,8.65
2022-10-13T13:31:03.840Z,8.43
2022-10-13T13:33:06.487Z,8.98
2022-10-13T13:35:10.207Z,8.38
2022-10-13T13:37:15.657Z,9.35
2022-10-13T13:39:18.375Z,8.23
2022-10-13T13:41:21.955Z,7.90
2022-10-13T13:43:24.761Z,7.68
2022-10-13T13:45:28.656Z,8.98
2022-10-13T13:47:31.230Z,8.63
2022-10-13T13:49:33.813Z,8.70
2022-10-13T13:51:36.568Z,7.80
2022-10-13T13:53:39.154Z,7.82
2022-10-13T13:55:44.434Z,8.45
2022-10-13T13:57:46.996Z,8.77
2022-10-13T13:59:49.682Z,7.72
2022-10-13T14:01:53.696Z,8.18
2022-10-13T14:03:56.343Z,8.60
2022-10-13T14:05:58.936Z,7.63
2022-10-13T14:08:02.282Z,8.18
2022-10-13T14:10:06.268Z,7.97
2022-10-13T14:12:08.971Z,7.75
2022-10-13T14:14:11.673Z,8.52
2022-10-13T14:16:18.597Z,8.68
2022-10-13T14:18:22.508Z,8.25
2022-10-13T14:20:25.160Z,8.57
2022-10-13T14:22:27.767Z,7.95
2022-10-13T14:24:30.349Z,7.70
2022-10-13T14:26:32.970Z,8.40
2022-10-13T14:28:35.611Z,8.15
2022-10-13T14:30:40.283Z,8.48
2022-10-13T14:32:43.260Z,8.90
2022-10-13T14:34:47.192Z,8.70
2022-10-13T14:36:49.813Z,8.60
2022-10-13T14:38:52.627Z,8.38
2022-10-13T14:40:59.487Z,7.97
2022-10-13T14:43:02.075Z,7.13
2022-10-13T14:45:06.510Z,7.75
2022-10-13T14:47:09.139Z,7.97
2022-10-13T14:49:12.144Z,8.85
2022-10-13T14:51:16.844Z,8.80
2022-10-13T14:53:19.480Z,9.07
2022-10-13T14:55:22.039Z,9.13
2022-10-13T14:57:24.699Z,8.70
2022-10-13T14:59:27.440Z,7.32
2022-10-13T15:01:30.379Z,8.15
2022-10-13T15:03:33.543Z,8.63
2022-10-13T15:05:36.209Z,6.53
2022-10-13T15:07:41.206Z,7.35
2022-10-13T15:09:52.819Z,7.57
2022-10-13T15:12:07.205Z,6.85
2022-10-13T15:14:10.710Z,6.90
2022-10-13T15:16:18.193Z,7.10
2022-10-13T15:18:22.880Z,7.00
2022-10-13T15:20:29.153Z,6.38
2022-10-13T15:22:31.920Z,6.32
2022-10-13T15:24:35.808Z,6.00
2022-10-13T15:26:38.418Z,5.60
2022-10-13T15:28:43.382Z,4.97
2022-10-13T15:30:46.633Z,5.32
2022-10-13T15:32:50.155Z,4.53
2022-10-13T15:34:52.725Z,6.00
2022-10-13T15:36:55.250Z,4.78
2022-10-13T15:38:57.804Z,5.50
2022-10-13T15:41:02.577Z,4.63
2022-10-13T15:43:06.290Z,4.63
2022-10-13T15:45:11.158Z,5.05
2022-10-13T15:47:17.167Z,4.75
2022-10-13T15:49:20.240Z,4.80
2022-10-13T15:51:26.756Z,5.40
2022-10-13T15:53:30.856Z,4.32
2022-10-13T15:55:34.417Z,4.63
2022-10-13T15:57:38.495Z,4.93
2022-10-13T15:59:41.221Z,5.07
2022-10-13T16:01:43.822Z,4.70
2022-10-13T16:03:46.405Z,4.82
2022-10-13T16:05:49.043Z,5.55
2022-10-13T16:07:51.645Z,5.15
2022-10-13T16:09:54.253Z,4.38
2022-10-13T16:11:56.804Z,5.93
2022-10-13T16:14:00.729Z,5.50
2022-10-13T16:16:05.521Z,6.00
2022-10-13T16:18:08.658Z,4.93
2022-10-13T16:20:12.358Z,5.65
2022-10-13T16:22:15.189Z,4.85
2022-10-13T16:24:17.764Z,5.25
2022-10-13T16:26:20.715Z,5.15
2022-10-13T16:28:23.354Z,6.32
2022-10-13T16:30:27.889Z,6.05
2022-10-13T16:32:30.742Z,6.22
2022-10-13T16:34:33.354Z,6.57
2022-10-13T16:36:35.890Z,6.75
2022-10-13T16:38:38.527Z,6.28
2022-10-13T16:40:41.381Z,6.22
2022-10-13T16:42:44.907Z,6.10
2022-10-13T16:44:47.603Z,5.80
2022-10-13T16:46:53.792Z,6.78
2022-10-13T16:48:56.370Z,6.97
2022-10-13T16:51:00.695Z,8.10
2022-10-13T16:53:03.247Z,7.13
2022-10-13T16:55:07.338Z,6.82
2022-10-13T16:57:10.321Z,7.63
2022-10-13T16:59:13.040Z,8.02
2022-10-13T17:01:15.692Z,7.88
2022-10-13T17:03:19.835Z,8.15
2022-10-13T17:05:22.429Z,8.13
2022-10-13T17:07:25.065Z,9.05
2022-10-13T17:09:27.777Z,8.13
2022-10-13T17:11:32.327Z,7.70
2022-10-13T17:13:36.945Z,7.85
2022-10-13T17:15:39.625Z,7.65
2022-10-13T17:17:42.201Z,8.18
2022-10-13T17:19:46.097Z,9.43
2022-10-13T17:21:48.648Z,8.77
2022-10-13T17:23:51.443Z,9.23
2022-10-13T17:25:56.017Z,9.63
2022-10-13T17:27:58.579Z,9.48
2022-10-13T17:30:01.143Z,9.15
2022-10-13T17:32:03.700Z,8.43
2022-10-13T17:34:06.632Z,9.20
2022-10-13T17:36:14.899Z,9.00
2022-10-13T17:38:17.427Z,9.55
2022-10-13T17:40:20.098Z,9.48
2022-10-13T17:42:22.905Z,9.95
2022-10-13T17:44:25.560Z,9.77
2022-10-13T17:46:38.929Z,10.70
2022-10-13T17:48:42.453Z,10.55
2022-10-13T17:50:45.102Z,10.23
2022-10-13T17:52:49.175Z,9.82
2022-10-13T17:54:51.729Z,12.30
2022-10-13T17:56:56.094Z,11.77
2022-10-13T17:58:59.675Z,12.98
2022-10-13T18:01:13.556Z,12.57
2022-10-13T18:03:16.457Z,13.30
2022-10-13T18:05:19.173Z,13.57
2022-10-13T18:07:21.934Z,13.55
2022-10-13T18:09:26.341Z,14.63
2022-10-13T18:11:29.075Z,14.63
2022-10-13T18:13:32.115Z,15.50
2022-10-13T18:15:36.818Z,13.77
2022-10-13T18:17:39.434Z,12.25
2022-10-13T18:19:43.074Z,12.43
2022-10-13T18:21:45.631Z,12.15
2022-10-13T18:23:48.177Z,12.50
2022-10-13T18:25:52.170Z,12.45
2022-10-13T18:27:54.797Z,13.55
2022-10-13T18:29:59.012Z,14.27
2022-10-13T18:32:01.687Z,13.70
2022-10-13T18:34:06.598Z,14.80
2022-10-13T18:36:14.942Z,12.80
2022-10-13T18:38:19.941Z,12.07
2022-10-13T18:40:22.605Z,12.82
2022-10-13T18:42:28.028Z,13.65
2022-10-13T18:44:30.589Z,12.77
2022-10-13T18:46:33.455Z,12.85
2022-10-13T18:48:36.585Z,13.05
2022-10-13T18:50:39.632Z,12.68
2022-10-13T18:52:42.193Z,12.15
2022-10-13T18:54:45.509Z,12.25
2022-10-13T18:56:48.098Z,11.15
2022-10-13T18:58:56.962Z,12.00
2022-10-13T19:01:02.490Z,10.77
2022-10-13T19:03:05.359Z,11.30
2022-10-13T19:05:08.411Z,11.38
2022-10-13T19:07:10.965Z,10.43
2022-10-13T19:09:15.403Z,11.93
2022-10-13T19:11:20.342Z,10.93
2022-10-13T19:13:22.926Z,11.50
2022-10-13T19:15:27.012Z,10.60
2022-10-13T19:17:29.750Z,10.95
2022-10-13T19:19:32.365Z,10.55
2022-10-13T19:21:34.972Z,10.63
2022-10-13T19:23:37.626Z,10.23
2022-10-13T19:25:42.160Z,11.05
2022-10-13T19:27:44.866Z,12.60
2022-10-13T19:29:47.523Z,12.05
2022-10-13T19:31:51.442Z,12.05
2022-10-13T19:33:54.899Z,12.07
2022-10-13T19:35:57.520Z,16.73
2022-10-13T19:38:00.090Z,16.67
2022-10-13T19:40:03.419Z,16.58
2022-10-13T19:42:06.141Z,18.17
2022-10-13T19:44:08.736Z,18.42
2022-10-13T19:46:11.410Z,17.13
2022-10-13T19:48:15.750Z,22.40
2022-10-13T19:50:18.502Z,27.23
2022-10-13T19:52:22.524Z,22.25
2022-10-13T19:54:31.465Z,22.15
2022-10-13T19:56:36.483Z,14.20
2022-10-13T19:58:39.053Z,12.43
2022-10-13T20:00:41.699Z,10.32
2022-10-13T20:02:44.290Z,10.85
2022-10-13T20:04:48.205Z,11.23
2022-10-13T20:06:52.041Z,10.30
2022-10-13T20:08:54.613Z,9.95
2022-10-13T20:10:57.211Z,11.48
2022-10-13T20:12:59.833Z,12.70
2022-10-13T20:15:02.414Z,12.77
2022-10-13T20:17:05.078Z,12.48
2022-10-13T20:19:08.184Z,12.82
2022-10-13T20:21:14.767Z,11.75
2022-10-13T20:23:17.406Z,13.57
2022-10-13T20:25:20.433Z,11.65
2022-10-13T20:27:23.834Z,12.13
2022-10-13T20:29:26.672Z,14.45
2022-10-13T20:31:29.459Z,12.93
2022-10-13T20:33:32.786Z,14.57
2022-10-13T20:35:35.369Z,13.32
2022-10-13T20:37:39.361Z,13.88
2022-10-13T20:39:42.024Z,15.18
2022-10-13T20:41:44.749Z,16.38
2022-10-13T20:43:48.573Z,15.93
2022-10-13T20:46:00.466Z,16.42
2022-10-13T20:50:08.463Z,14.80
2022-10-13T20:52:11.089Z,15.13
2022-10-13T20:54:16.559Z,15.80
2022-10-13T20:56:22.060Z,13.88
2022-10-13T20:58:25.470Z,13.70
2022-10-13T21:00:28.174Z,13.73
2022-10-13T21:02:30.814Z,12.88
2022-10-13T21:04:33.480Z,12.68
2022-10-13T21:06:36.397Z,12.23
2022-10-13T21:08:39.014Z,12.82
2022-10-13T21:10:42.944Z,12.95
2022-10-13T21:12:45.592Z,12.88
2022-10-13T21:14:48.167Z,12.88
2022-10-13T21:16:53.292Z,11.98
2022-10-13T21:18:57.673Z,12.50
2022-10-13T21:21:03.551Z,13.23
2022-10-13T21:23:07.120Z,12.40
2022-10-13T21:25:10.374Z,13.07
2022-10-13T21:27:14.333Z,13.73
2022-10-13T21:29:17.032Z,14.10
2022-10-13T21:31:21.418Z,12.63
2022-10-13T21:33:24.070Z,12.48
2022-10-13T21:35:26.871Z,12.00
2022-10-13T21:37:29.466Z,12.65
2022-10-13T21:39:32.042Z,13.07
2022-10-13T21:41:34.699Z,13.07
2022-10-13T21:43:38.859Z,12.52
2022-10-13T21:45:41.452Z,12.50
2022-10-13T21:47:44.026Z,12.20
2022-10-13T21:49:46.594Z,12.65
2022-10-13T21:51:49.386Z,11.48
2022-10-13T21:53:53.927Z,11.45
2022-10-13T21:55:56.519Z,12.43
2022-10-13T21:58:05.157Z,10.50
2022-10-13T22:00:10.956Z,11.18
2022-10-13T22:02:13.733Z,11.52
2022-10-13T22:04:16.293Z,10.73
2022-10-13T22:06:20.051Z,11.80
2022-10-13T22:08:37.335Z,10.20
2022-10-13T22:10:40.683Z,10.68
2022-10-13T22:12:43.273Z,10.63
2022-10-13T22:14:46.111Z,10.98
2022-10-13T22:16:52.085Z,10.55
2022-10-13T22:18:56.327Z,10.43
2022-10-13T22:21:01.939Z,10.73
2022-10-13T22:23:04.547Z,11.35
2022-10-13T22:25:08.735Z,12.30
2022-10-13T22:27:11.377Z,12.75
2022-10-13T22:29:17.944Z,14.18
2022-10-13T22:31:20.755Z,11.98
2022-10-13T22:33:24.730Z,11.38
2022-10-13T22:35:27.335Z,12.38
2022-10-13T22:37:29.958Z,12.25
2022-10-13T22:39:32.701Z,11.75
2022-10-13T22:41:35.888Z,12.30
2022-10-13T22:43:38.711Z,13.20
2022-10-13T22:45:50.712Z,13.55
2022-10-13T22:47:53.685Z,15.18
2022-10-13T22:49:57.869Z,15.80
2022-10-13T22:52:00.545Z,15.77
2022-10-13T22:54:04.023Z,13.77
2022-10-13T22:56:07.399Z,13.90
2022-10-13T22:58:10.317Z,13.32
2022-10-13T23:00:13.977Z,12.23
2022-10-13T23:02:16.614Z,11.05
2022-10-13T23:04:19.170Z,10.88
2022-10-13T23:06:24.845Z,11.20
2022-10-13T23:08:27.574Z,10.63
2022-10-13T23:10:30.147Z,10.60
2022-10-13T23:12:35.155Z,11.90
2022-10-13T23:14:37.820Z,12.80
2022-10-13T23:16:40.437Z,11.85
2022-10-13T23:18:43.376Z,14.10
2022-10-13T23:20:45.931Z,14.75
2022-10-13T23:22:49.891Z,13.68
2022-10-13T23:24:52.539Z,14.30
2022-10-13T23:27:00.217Z,15.15
2022-10-13T23:29:03.389Z,18.30
2022-10-13T23:31:07.899Z,16.63
2022-10-13T23:33:10.458Z,17.05
2022-10-13T23:35:13.133Z,17.70
2022-10-13T23:37:15.738Z,16.70
2022-10-13T23:39:19.672Z,18.17
2022-10-13T23:41:22.312Z,15.65
2022-10-13T23:43:24.936Z,15.85
2022-10-13T23:45:27.505Z,13.60
2022-10-13T23:47:30.073Z,13.32
2022-10-13T23:49:32.651Z,15.00
2022-10-13T23:51:35.252Z,16.90
2022-10-13T23:53:38.543Z,17.17
2022-10-13T23:55:42.454Z,15.30
2022-10-13T23:57:45.035Z,15.25
2022-10-13T23:59:47.820Z,15.75
